sensor_id;sensor_type;location;lat;lon;timestamp;P1;durP1;ratioP1;P2;durP2;ratioP2
46899;SDS011;32647;49.382;7.078;2022-10-31T00:00:35;17.67;;;11.00;;
46899;SDS011;32647;49.382;7.078;2022-10-31T00:03:21;24.00;;;11.18;;
46899;SDS011;32647;49.382;7.078;2022-10-31T00:06:07;27.45;;;13.57;;
46899;SDS011;32647;49.382;7.078;2022-10-31T00:08:54;19.15;;;11.98;;
46899;SDS011;32647;49.382;7.078;2022-10-31T00:11:44;19.02;;;12.10;;
46899;SDS011;32647;49.382;7.078;2022-10-31T00:14:30;22.98;;;12.00;;
46899;SDS011;32647;49.382;7.078;2022-10-31T00:17:16;19.67;;;11.90;;
46899;SDS011;32647;49.382;7.078;2022-10-31T00:20:03;21.33;;;12.70;;
46899;SDS011;32647;49.382;7.078;2022-10-31T00:22:49;21.20;;;12.68;;
46899;SDS011;32647;49.382;7.078;2022-10-31T00:25:36;25.98;;;14.05;;
46899;SDS011;32647;49.382;7.078;2022-10-31T00:28:23;23.50;;;14.10;;
46899;SDS011;32647;49.382;7.078;2022-10-31T00:31:10;17.55;;;11.50;;
46899;SDS011;32647;49.382;7.078;2022-10-31T00:33:57;18.63;;;11.93;;
46899;SDS011;32647;49.382;7.078;2022-10-31T00:36:43;21.13;;;12.00;;
46899;SDS011;32647;49.382;7.078;2022-10-31T00:39:29;19.90;;;11.85;;
46899;SDS011;32647;49.382;7.078;2022-10-31T00:42:15;21.65;;;11.80;;
46899;SDS011;32647;49.382;7.078;2022-10-31T00:45:01;24.15;;;12.88;;
46899;SDS011;32647;49.382;7.078;2022-10-31T00:47:47;21.92;;;11.32;;
46899;SDS011;32647;49.382;7.078;2022-10-31T00:50:33;20.35;;;12.25;;
46899;SDS011;32647;49.382;7.078;2022-10-31T00:53:19;20.30;;;13.75;;
46899;SDS011;32647;49.382;7.078;2022-10-31T00:56:05;22.83;;;12.80;;
46899;SDS011;32647;49.382;7.078;2022-10-31T00:58:52;23.40;;;12.80;;
46899;SDS011;32647;49.382;7.078;2022-10-31T01:01:37;21.35;;;13.18;;
46899;SDS011;32647;49.382;7.078;2022-10-31T01:04:23;26.92;;;13.93;;
46899;SDS011;32647;49.382;7.078;2022-10-31T01:07:09;20.88;;;12.85;;
46899;SDS011;32647;49.382;7.078;2022-10-31T01:09:57;19.08;;;12.32;;
46899;SDS011;32647;49.382;7.078;2022-10-31T01:12:44;19.85;;;12.45;;
46899;SDS011;32647;49.382;7.078;2022-10-31T01:15:32;25.08;;;13.18;;
46899;SDS011;32647;49.382;7.078;2022-10-31T01:18:18;29.83;;;16.67;;
46899;SDS011;32647;49.382;7.078;2022-10-31T01:21:06;23.52;;;16.55;;
46899;SDS011;32647;49.382;7.078;2022-10-31T01:23:54;25.15;;;15.93;;
46899;SDS011;32647;49.382;7.078;2022-10-31T01:26:40;20.02;;;13.02;;
46899;SDS011;32647;49.382;7.078;2022-10-31T01:29:26;25.00;;;14.52;;
46899;SDS011;32647;49.382;7.078;2022-10-31T01:32:12;19.88;;;11.88;;
46899;SDS011;32647;49.382;7.078;2022-10-31T01:34:58;18.25;;;11.82;;
46899;SDS011;32647;49.382;7.078;2022-10-31T01:37:44;21.20;;;12.25;;
46899;SDS011;32647;49.382;7.078;2022-10-31T01:40:30;19.90;;;12.70;;
46899;SDS011;32647;49.382;7.078;2022-10-31T01:43:17;19.00;;;13.13;;
46899;SDS011;32647;49.382;7.078;2022-10-31T01:46:04;23.60;;;12.85;;
46899;SDS011;32647;49.382;7.078;2022-10-31T01:48:50;19.80;;;11.40;;
46899;SDS011;32647;49.382;7.078;2022-10-31T01:51:39;22.35;;;12.45;;
46899;SDS011;32647;49.382;7.078;2022-10-31T01:54:30;18.90;;;12.75;;
46899;SDS011;32647;49.382;7.078;2022-10-31T01:57:20;21.73;;;11.95;;
46899;SDS011;32647;49.382;7.078;2022-10-31T02:00:08;21.33;;;12.15;;
46899;SDS011;32647;49.382;7.078;2022-10-31T02:02:55;18.10;;;11.90;;
46899;SDS011;32647;49.382;7.078;2022-10-31T02:05:41;24.45;;;13.77;;
46899;SDS011;32647;49.382;7.078;2022-10-31T02:08:29;24.77;;;12.43;;
46899;SDS011;32647;49.382;7.078;2022-10-31T02:11:17;21.42;;;13.13;;
46899;SDS011;32647;49.382;7.078;2022-10-31T02:14:03;19.98;;;11.48;;
46899;SDS011;32647;49.382;7.078;2022-10-31T02:16:50;22.63;;;12.32;;
46899;SDS011;32647;49.382;7.078;2022-10-31T02:22:33;17.83;;;12.75;;
46899;SDS011;32647;49.382;7.078;2022-10-31T02:32:13;22.65;;;12.80;;
46899;SDS011;32647;49.382;7.078;2022-10-31T02:35:10;18.65;;;10.50;;
46899;SDS011;32647;49.382;7.078;2022-10-31T02:41:19;19.45;;;10.85;;
46899;SDS011;32647;49.382;7.078;2022-10-31T02:44:33;20.38;;;11.43;;
46899;SDS011;32647;49.382;7.078;2022-10-31T02:47:33;24.10;;;13.43;;
46899;SDS011;32647;49.382;7.078;2022-10-31T02:50:27;20.98;;;11.75;;
46899;SDS011;32647;49.382;7.078;2022-10-31T02:53:16;19.25;;;12.10;;
46899;SDS011;32647;49.382;7.078;2022-10-31T02:56:16;25.20;;;12.70;;
46899;SDS011;32647;49.382;7.078;2022-10-31T02:59:04;22.30;;;12.70;;
46899;SDS011;32647;49.382;7.078;2022-10-31T03:02:00;22.08;;;12.32;;
46899;SDS011;32647;49.382;7.078;2022-10-31T03:05:07;18.02;;;10.55;;
46899;SDS011;32647;49.382;7.078;2022-10-31T03:10:53;22.40;;;12.13;;
46899;SDS011;32647;49.382;7.078;2022-10-31T03:13:46;18.90;;;12.20;;
46899;SDS011;32647;49.382;7.078;2022-10-31T03:16:49;20.70;;;13.02;;
46899;SDS011;32647;49.382;7.078;2022-10-31T03:19:41;20.02;;;12.25;;
46899;SDS011;32647;49.382;7.078;2022-10-31T03:22:31;24.67;;;12.27;;
46899;SDS011;32647;49.382;7.078;2022-10-31T03:25:18;17.88;;;11.50;;
46899;SDS011;32647;49.382;7.078;2022-10-31T03:28:04;17.00;;;10.75;;
46899;SDS011;32647;49.382;7.078;2022-10-31T03:30:53;21.63;;;11.73;;
46899;SDS011;32647;49.382;7.078;2022-10-31T03:33:40;18.92;;;12.15;;
46899;SDS011;32647;49.382;7.078;2022-10-31T03:36:30;20.65;;;10.02;;
46899;SDS011;32647;49.382;7.078;2022-10-31T03:39:20;18.85;;;10.20;;
46899;SDS011;32647;49.382;7.078;2022-10-31T03:42:11;20.67;;;11.93;;
46899;SDS011;32647;49.382;7.078;2022-10-31T03:45:05;21.13;;;11.85;;
46899;SDS011;32647;49.382;7.078;2022-10-31T03:47:52;20.42;;;11.20;;
46899;SDS011;32647;49.382;7.078;2022-10-31T03:50:42;19.83;;;10.98;;
46899;SDS011;32647;49.382;7.078;2022-10-31T03:56:52;23.38;;;11.50;;
46899;SDS011;32647;49.382;7.078;2022-10-31T03:59:42;16.17;;;10.60;;
46899;SDS011;32647;49.382;7.078;2022-10-31T04:02:33;24.92;;;12.35;;
46899;SDS011;32647;49.382;7.078;2022-10-31T04:05:21;18.00;;;10.82;;
46899;SDS011;32647;49.382;7.078;2022-10-31T04:08:09;18.13;;;9.48;;
46899;SDS011;32647;49.382;7.078;2022-10-31T04:10:59;20.17;;;10.13;;
46899;SDS011;32647;49.382;7.078;2022-10-31T04:13:47;17.63;;;10.48;;
46899;SDS011;32647;49.382;7.078;2022-10-31T04:16:34;14.82;;;9.75;;
46899;SDS011;32647;49.382;7.078;2022-10-31T04:19:20;17.02;;;11.35;;
46899;SDS011;32647;49.382;7.078;2022-10-31T04:22:06;17.83;;;9.98;;
46899;SDS011;32647;49.382;7.078;2022-10-31T04:24:53;14.10;;;9.52;;
46899;SDS011;32647;49.382;7.078;2022-10-31T04:27:39;17.80;;;10.48;;
46899;SDS011;32647;49.382;7.078;2022-10-31T04:30:25;16.73;;;10.40;;
46899;SDS011;32647;49.382;7.078;2022-10-31T04:33:11;21.30;;;10.70;;
46899;SDS011;32647;49.382;7.078;2022-10-31T04:35:56;17.20;;;10.75;;
46899;SDS011;32647;49.382;7.078;2022-10-31T04:38:42;21.92;;;11.63;;
46899;SDS011;32647;49.382;7.078;2022-10-31T04:41:28;18.40;;;11.45;;
46899;SDS011;32647;49.382;7.078;2022-10-31T04:44:15;24.30;;;11.82;;
46899;SDS011;32647;49.382;7.078;2022-10-31T04:47:01;17.10;;;9.55;;
46899;SDS011;32647;49.382;7.078;2022-10-31T04:49:47;24.95;;;11.73;;
46899;SDS011;32647;49.382;7.078;2022-10-31T04:52:38;20.13;;;11.02;;
46899;SDS011;32647;49.382;7.078;2022-10-31T04:55:25;17.80;;;10.30;;
46899;SDS011;32647;49.382;7.078;2022-10-31T04:58:11;17.98;;;10.00;;
46899;SDS011;32647;49.382;7.078;2022-10-31T05:00:56;20.73;;;11.07;;
46899;SDS011;32647;49.382;7.078;2022-10-31T05:03:42;18.13;;;11.82;;
46899;SDS011;32647;49.382;7.078;2022-10-31T05:06:28;15.30;;;9.80;;
46899;SDS011;32647;49.382;7.078;2022-10-31T05:09:14;16.92;;;10.18;;
46899;SDS011;32647;49.382;7.078;2022-10-31T05:12:00;13.68;;;10.20;;
46899;SDS011;32647;49.382;7.078;2022-10-31T05:14:46;20.33;;;11.27;;
46899;SDS011;32647;49.382;7.078;2022-10-31T05:17:32;21.25;;;10.93;;
46899;SDS011;32647;49.382;7.078;2022-10-31T05:20:19;20.58;;;10.38;;
46899;SDS011;32647;49.382;7.078;2022-10-31T05:23:06;18.73;;;11.25;;
46899;SDS011;32647;49.382;7.078;2022-10-31T05:25:52;21.30;;;11.63;;
46899;SDS011;32647;49.382;7.078;2022-10-31T05:28:38;29.63;;;12.52;;
46899;SDS011;32647;49.382;7.078;2022-10-31T05:31:24;24.35;;;13.48;;
46899;SDS011;32647;49.382;7.078;2022-10-31T05:36:37;18.48;;;10.68;;
46899;SDS011;32647;49.382;7.078;2022-10-31T05:39:23;17.80;;;10.25;;
46899;SDS011;32647;49.382;7.078;2022-10-31T05:42:09;18.27;;;10.57;;
46899;SDS011;32647;49.382;7.078;2022-10-31T05:44:55;18.95;;;9.35;;
46899;SDS011;32647;49.382;7.078;2022-10-31T05:47:41;16.92;;;9.80;;
46899;SDS011;32647;49.382;7.078;2022-10-31T05:50:29;16.13;;;10.07;;
46899;SDS011;32647;49.382;7.078;2022-10-31T05:53:16;17.85;;;10.20;;
46899;SDS011;32647;49.382;7.078;2022-10-31T05:56:02;21.92;;;11.23;;
46899;SDS011;32647;49.382;7.078;2022-10-31T05:58:48;16.90;;;10.90;;
46899;SDS011;32647;49.382;7.078;2022-10-31T06:01:34;22.00;;;10.38;;
46899;SDS011;32647;49.382;7.078;2022-10-31T06:04:20;17.42;;;10.45;;
46899;SDS011;32647;49.382;7.078;2022-10-31T06:07:06;21.33;;;11.07;;
46899;SDS011;32647;49.382;7.078;2022-10-31T06:09:52;19.27;;;10.52;;
46899;SDS011;32647;49.382;7.078;2022-10-31T06:12:38;18.88;;;11.00;;
46899;SDS011;32647;49.382;7.078;2022-10-31T06:15:25;18.33;;;11.20;;
46899;SDS011;32647;49.382;7.078;2022-10-31T06:18:11;18.10;;;11.07;;
46899;SDS011;32647;49.382;7.078;2022-10-31T06:20:57;19.92;;;10.35;;
46899;SDS011;32647;49.382;7.078;2022-10-31T06:23:43;24.17;;;11.48;;
46899;SDS011;32647;49.382;7.078;2022-10-31T06:26:32;17.08;;;9.70;;
46899;SDS011;32647;49.382;7.078;2022-10-31T06:29:18;19.88;;;10.13;;
46899;SDS011;32647;49.382;7.078;2022-10-31T06:32:04;15.70;;;10.18;;
46899;SDS011;32647;49.382;7.078;2022-10-31T06:34:50;19.67;;;10.48;;
46899;SDS011;32647;49.382;7.078;2022-10-31T06:37:36;19.42;;;11.57;;
46899;SDS011;32647;49.382;7.078;2022-10-31T06:40:23;22.48;;;12.43;;
46899;SDS011;32647;49.382;7.078;2022-10-31T06:43:09;28.38;;;14.70;;
46899;SDS011;32647;49.382;7.078;2022-10-31T06:45:56;27.13;;;14.18;;
46899;SDS011;32647;49.382;7.078;2022-10-31T06:48:42;18.67;;;12.55;;
46899;SDS011;32647;49.382;7.078;2022-10-31T06:51:28;22.23;;;13.38;;
46899;SDS011;32647;49.382;7.078;2022-10-31T06:54:14;27.55;;;13.25;;
46899;SDS011;32647;49.382;7.078;2022-10-31T06:57:01;30.23;;;15.48;;
46899;SDS011;32647;49.382;7.078;2022-10-31T06:59:47;21.25;;;12.02;;
46899;SDS011;32647;49.382;7.078;2022-10-31T07:02:33;30.00;;;12.57;;
46899;SDS011;32647;49.382;7.078;2022-10-31T07:05:19;19.83;;;12.02;;
46899;SDS011;32647;49.382;7.078;2022-10-31T07:08:06;27.08;;;12.52;;
46899;SDS011;32647;49.382;7.078;2022-10-31T07:10:55;21.30;;;12.38;;
46899;SDS011;32647;49.382;7.078;2022-10-31T07:13:42;18.13;;;11.00;;
46899;SDS011;32647;49.382;7.078;2022-10-31T07:16:28;18.95;;;11.65;;
46899;SDS011;32647;49.382;7.078;2022-10-31T07:19:14;18.20;;;10.95;;
46899;SDS011;32647;49.382;7.078;2022-10-31T07:22:00;19.52;;;12.18;;
46899;SDS011;32647;49.382;7.078;2022-10-31T07:24:46;19.33;;;11.93;;
46899;SDS011;32647;49.382;7.078;2022-10-31T07:27:36;20.25;;;11.57;;
46899;SDS011;32647;49.382;7.078;2022-10-31T07:30:23;15.45;;;11.25;;
46899;SDS011;32647;49.382;7.078;2022-10-31T07:33:09;20.30;;;11.75;;
46899;SDS011;32647;49.382;7.078;2022-10-31T07:35:55;18.52;;;11.70;;
46899;SDS011;32647;49.382;7.078;2022-10-31T07:38:41;15.93;;;11.63;;
46899;SDS011;32647;49.382;7.078;2022-10-31T07:41:27;17.63;;;11.43;;
46899;SDS011;32647;49.382;7.078;2022-10-31T07:44:13;18.17;;;11.38;;
46899;SDS011;32647;49.382;7.078;2022-10-31T07:46:59;21.48;;;11.60;;
46899;SDS011;32647;49.382;7.078;2022-10-31T07:49:48;20.60;;;12.40;;
46899;SDS011;32647;49.382;7.078;2022-10-31T07:52:34;16.77;;;11.02;;
46899;SDS011;32647;49.382;7.078;2022-10-31T07:55:20;23.10;;;13.27;;
46899;SDS011;32647;49.382;7.078;2022-10-31T07:58:11;19.13;;;12.85;;
46899;SDS011;32647;49.382;7.078;2022-10-31T08:00:59;18.98;;;12.93;;
46899;SDS011;32647;49.382;7.078;2022-10-31T08:03:45;20.13;;;13.57;;
46899;SDS011;32647;49.382;7.078;2022-10-31T08:06:31;22.25;;;13.80;;
46899;SDS011;32647;49.382;7.078;2022-10-31T08:09:22;25.67;;;15.00;;
46899;SDS011;32647;49.382;7.078;2022-10-31T08:12:08;24.52;;;14.43;;
46899;SDS011;32647;49.382;7.078;2022-10-31T08:14:54;25.45;;;14.65;;
46899;SDS011;32647;49.382;7.078;2022-10-31T08:17:40;22.00;;;14.65;;
46899;SDS011;32647;49.382;7.078;2022-10-31T08:20:26;23.83;;;14.55;;
46899;SDS011;32647;49.382;7.078;2022-10-31T08:23:12;21.35;;;14.70;;
46899;SDS011;32647;49.382;7.078;2022-10-31T08:25:59;16.45;;;13.48;;
46899;SDS011;32647;49.382;7.078;2022-10-31T08:28:45;24.85;;;14.90;;
46899;SDS011;32647;49.382;7.078;2022-10-31T08:31:31;23.58;;;14.13;;
46899;SDS011;32647;49.382;7.078;2022-10-31T08:34:17;23.05;;;13.95;;
46899;SDS011;32647;49.382;7.078;2022-10-31T08:37:03;22.00;;;13.52;;
46899;SDS011;32647;49.382;7.078;2022-10-31T08:39:49;28.90;;;14.40;;
46899;SDS011;32647;49.382;7.078;2022-10-31T08:42:35;20.58;;;12.75;;
46899;SDS011;32647;49.382;7.078;2022-10-31T08:45:21;20.40;;;11.50;;
46899;SDS011;32647;49.382;7.078;2022-10-31T08:48:11;22.50;;;13.85;;
46899;SDS011;32647;49.382;7.078;2022-10-31T08:50:59;24.02;;;13.60;;
46899;SDS011;32647;49.382;7.078;2022-10-31T08:53:45;22.38;;;12.00;;
46899;SDS011;32647;49.382;7.078;2022-10-31T08:56:31;19.35;;;11.80;;
46899;SDS011;32647;49.382;7.078;2022-10-31T08:59:17;20.17;;;11.00;;
46899;SDS011;32647;49.382;7.078;2022-10-31T09:02:02;24.80;;;11.88;;
46899;SDS011;32647;49.382;7.078;2022-10-31T09:04:49;19.92;;;12.30;;
46899;SDS011;32647;49.382;7.078;2022-10-31T09:07:35;22.08;;;11.82;;
46899;SDS011;32647;49.382;7.078;2022-10-31T09:10:21;19.20;;;12.30;;
46899;SDS011;32647;49.382;7.078;2022-10-31T09:13:25;26.88;;;12.35;;
46899;SDS011;32647;49.382;7.078;2022-10-31T09:16:11;22.13;;;12.77;;
46899;SDS011;32647;49.382;7.078;2022-10-31T09:18:57;15.10;;;11.95;;
46899;SDS011;32647;49.382;7.078;2022-10-31T09:21:46;19.35;;;12.77;;
46899;SDS011;32647;49.382;7.078;2022-10-31T09:24:44;19.92;;;13.32;;
46899;SDS011;32647;49.382;7.078;2022-10-31T09:27:33;23.77;;;13.05;;
46899;SDS011;32647;49.382;7.078;2022-10-31T09:30:19;23.95;;;13.77;;
46899;SDS011;32647;49.382;7.078;2022-10-31T09:33:06;22.88;;;12.77;;
46899;SDS011;32647;49.382;7.078;2022-10-31T09:35:58;22.33;;;13.10;;
46899;SDS011;32647;49.382;7.078;2022-10-31T09:38:51;26.55;;;13.90;;
46899;SDS011;32647;49.382;7.078;2022-10-31T09:47:53;22.23;;;12.23;;
46899;SDS011;32647;49.382;7.078;2022-10-31T09:51:07;17.85;;;12.27;;
46899;SDS011;32647;49.382;7.078;2022-10-31T09:56:50;20.48;;;12.90;;
46899;SDS011;32647;49.382;7.078;2022-10-31T09:59:37;22.77;;;11.95;;
46899;SDS011;32647;49.382;7.078;2022-10-31T10:02:43;19.92;;;11.45;;
46899;SDS011;32647;49.382;7.078;2022-10-31T10:08:36;22.58;;;11.23;;
46899;SDS011;32647;49.382;7.078;2022-10-31T10:11:27;19.92;;;10.10;;
46899;SDS011;32647;49.382;7.078;2022-10-31T10:14:32;15.38;;;10.32;;
46899;SDS011;32647;49.382;7.078;2022-10-31T10:17:23;17.08;;;10.38;;
46899;SDS011;32647;49.382;7.078;2022-10-31T10:23:24;21.27;;;10.80;;
46899;SDS011;32647;49.382;7.078;2022-10-31T10:26:26;18.65;;;9.98;;
46899;SDS011;32647;49.382;7.078;2022-10-31T10:29:26;16.48;;;9.55;;
46899;SDS011;32647;49.382;7.078;2022-10-31T10:32:23;16.88;;;9.00;;
46899;SDS011;32647;49.382;7.078;2022-10-31T10:38:23;13.38;;;7.10;;
46899;SDS011;32647;49.382;7.078;2022-10-31T10:41:19;11.70;;;7.35;;
46899;SDS011;32647;49.382;7.078;2022-10-31T10:44:08;14.52;;;7.57;;
46899;SDS011;32647;49.382;7.078;2022-10-31T10:46:56;14.02;;;7.75;;
46899;SDS011;32647;49.382;7.078;2022-10-31T10:50:51;15.63;;;8.15;;
46899;SDS011;32647;49.382;7.078;2022-10-31T10:53:39;11.25;;;7.38;;
46899;SDS011;32647;49.382;7.078;2022-10-31T10:59:51;15.63;;;6.90;;
46899;SDS011;32647;49.382;7.078;2022-10-31T11:02:37;13.52;;;7.03;;
46899;SDS011;32647;49.382;7.078;2022-10-31T11:08:29;14.02;;;6.47;;
46899;SDS011;32647;49.382;7.078;2022-10-31T11:14:04;10.85;;;6.60;;
46899;SDS011;32647;49.382;7.078;2022-10-31T11:17:08;13.20;;;6.72;;
46899;SDS011;32647;49.382;7.078;2022-10-31T11:20:04;13.35;;;6.30;;
46899;SDS011;32647;49.382;7.078;2022-10-31T11:23:16;13.73;;;5.70;;
46899;SDS011;32647;49.382;7.078;2022-10-31T11:26:06;8.40;;;5.78;;
46899;SDS011;32647;49.382;7.078;2022-10-31T11:29:05;10.85;;;5.47;;
46899;SDS011;32647;49.382;7.078;2022-10-31T11:31:57;11.90;;;5.85;;
46899;SDS011;32647;49.382;7.078;2022-10-31T11:34:46;14.00;;;6.40;;
46899;SDS011;32647;49.382;7.078;2022-10-31T11:37:35;11.18;;;5.82;;
46899;SDS011;32647;49.382;7.078;2022-10-31T11:40:27;11.80;;;6.07;;
46899;SDS011;32647;49.382;7.078;2022-10-31T11:43:14;17.98;;;6.80;;
46899;SDS011;32647;49.382;7.078;2022-10-31T11:46:09;15.00;;;6.80;;
46899;SDS011;32647;49.382;7.078;2022-10-31T11:48:57;7.57;;;5.75;;
46899;SDS011;32647;49.382;7.078;2022-10-31T11:51:46;13.25;;;6.10;;
46899;SDS011;32647;49.382;7.078;2022-10-31T11:54:41;13.40;;;6.47;;
46899;SDS011;32647;49.382;7.078;2022-10-31T12:00:31;11.67;;;5.80;;
46899;SDS011;32647;49.382;7.078;2022-10-31T12:09:14;13.40;;;5.03;;
46899;SDS011;32647;49.382;7.078;2022-10-31T12:12:10;13.05;;;5.25;;
46899;SDS011;32647;49.382;7.078;2022-10-31T12:21:59;11.52;;;5.25;;
46899;SDS011;32647;49.382;7.078;2022-10-31T12:25:02;15.50;;;5.45;;
46899;SDS011;32647;49.382;7.078;2022-10-31T12:46:55;11.52;;;4.90;;
46899;SDS011;32647;49.382;7.078;2022-10-31T13:01:31;7.07;;;4.40;;
46899;SDS011;32647;49.382;7.078;2022-10-31T13:07:34;11.13;;;5.03;;
46899;SDS011;32647;49.382;7.078;2022-10-31T13:16:35;10.48;;;4.70;;
46899;SDS011;32647;49.382;7.078;2022-10-31T13:19:28;9.88;;;4.40;;
46899;SDS011;32647;49.382;7.078;2022-10-31T13:22:21;14.55;;;5.22;;
46899;SDS011;32647;49.382;7.078;2022-10-31T13:28:04;8.38;;;4.78;;
46899;SDS011;32647;49.382;7.078;2022-10-31T13:31:00;10.13;;;4.60;;
46899;SDS011;32647;49.382;7.078;2022-10-31T13:33:48;13.27;;;4.93;;
46899;SDS011;32647;49.382;7.078;2022-10-31T13:39:49;10.93;;;5.53;;
46899;SDS011;32647;49.382;7.078;2022-10-31T13:46:01;11.30;;;4.82;;
46899;SDS011;32647;49.382;7.078;2022-10-31T13:48:47;10.27;;;5.00;;
46899;SDS011;32647;49.382;7.078;2022-10-31T13:51:33;13.60;;;5.30;;
46899;SDS011;32647;49.382;7.078;2022-10-31T13:54:21;10.60;;;5.40;;
46899;SDS011;32647;49.382;7.078;2022-10-31T13:57:48;22.77;;;6.50;;
46899;SDS011;32647;49.382;7.078;2022-10-31T14:00:34;12.45;;;5.85;;
46899;SDS011;32647;49.382;7.078;2022-10-31T14:03:21;10.18;;;5.10;;
46899;SDS011;32647;49.382;7.078;2022-10-31T14:06:10;15.88;;;6.32;;
46899;SDS011;32647;49.382;7.078;2022-10-31T14:08:56;11.82;;;6.00;;
46899;SDS011;32647;49.382;7.078;2022-10-31T14:11:44;13.15;;;5.50;;
46899;SDS011;32647;49.382;7.078;2022-10-31T14:14:34;12.75;;;5.82;;
46899;SDS011;32647;49.382;7.078;2022-10-31T14:17:38;13.35;;;5.40;;
46899;SDS011;32647;49.382;7.078;2022-10-31T14:32:01;11.07;;;6.00;;
46899;SDS011;32647;49.382;7.078;2022-10-31T14:35:00;13.90;;;6.15;;
46899;SDS011;32647;49.382;7.078;2022-10-31T14:41:07;14.30;;;4.93;;
46899;SDS011;32647;49.382;7.078;2022-10-31T14:47:27;12.10;;;4.60;;
46899;SDS011;32647;49.382;7.078;2022-10-31T14:50:39;7.55;;;4.68;;
46899;SDS011;32647;49.382;7.078;2022-10-31T14:56:24;10.90;;;4.78;;
46899;SDS011;32647;49.382;7.078;2022-10-31T14:59:11;10.98;;;4.95;;
46899;SDS011;32647;49.382;7.078;2022-10-31T15:02:14;10.48;;;5.65;;
46899;SDS011;32647;49.382;7.078;2022-10-31T15:05:21;16.77;;;5.80;;
46899;SDS011;32647;49.382;7.078;2022-10-31T15:14:00;14.63;;;5.68;;
46899;SDS011;32647;49.382;7.078;2022-10-31T15:16:47;13.23;;;5.43;;
46899;SDS011;32647;49.382;7.078;2022-10-31T15:19:33;9.70;;;5.85;;
46899;SDS011;32647;49.382;7.078;2022-10-31T15:22:22;12.82;;;6.53;;
46899;SDS011;32647;49.382;7.078;2022-10-31T15:25:21;12.88;;;6.07;;
46899;SDS011;32647;49.382;7.078;2022-10-31T15:28:41;12.93;;;6.13;;
46899;SDS011;32647;49.382;7.078;2022-10-31T15:31:20;13.75;;;6.00;;
46899;SDS011;32647;49.382;7.078;2022-10-31T15:34:15;17.00;;;6.38;;
46899;SDS011;32647;49.382;7.078;2022-10-31T15:37:14;13.98;;;5.93;;
46899;SDS011;32647;49.382;7.078;2022-10-31T15:40:14;17.42;;;8.15;;
46899;SDS011;32647;49.382;7.078;2022-10-31T15:43:03;19.25;;;11.85;;
46899;SDS011;32647;49.382;7.078;2022-10-31T15:45:52;18.35;;;10.38;;
46899;SDS011;32647;49.382;7.078;2022-10-31T15:48:38;21.55;;;9.23;;
46899;SDS011;32647;49.382;7.078;2022-10-31T15:51:26;21.25;;;8.00;;
46899;SDS011;32647;49.382;7.078;2022-10-31T15:54:15;15.00;;;7.78;;
46899;SDS011;32647;49.382;7.078;2022-10-31T15:57:02;13.38;;;6.90;;
46899;SDS011;32647;49.382;7.078;2022-10-31T15:59:50;13.05;;;6.60;;
46899;SDS011;32647;49.382;7.078;2022-10-31T16:02:36;17.55;;;7.10;;
46899;SDS011;32647;49.382;7.078;2022-10-31T16:05:23;12.73;;;8.02;;
46899;SDS011;32647;49.382;7.078;2022-10-31T16:08:23;15.98;;;7.95;;
46899;SDS011;32647;49.382;7.078;2022-10-31T16:14:40;14.85;;;9.00;;
46899;SDS011;32647;49.382;7.078;2022-10-31T16:17:12;17.58;;;8.52;;
46899;SDS011;32647;49.382;7.078;2022-10-31T16:20:01;16.95;;;8.82;;
46899;SDS011;32647;49.382;7.078;2022-10-31T16:22:52;14.93;;;9.90;;
46899;SDS011;32647;49.382;7.078;2022-10-31T16:25:39;18.15;;;11.05;;
46899;SDS011;32647;49.382;7.078;2022-10-31T16:28:26;17.95;;;10.95;;
46899;SDS011;32647;49.382;7.078;2022-10-31T16:31:13;20.00;;;10.98;;
46899;SDS011;32647;49.382;7.078;2022-10-31T16:34:04;44.65;;;19.60;;
46899;SDS011;32647;49.382;7.078;2022-10-31T16:36:55;45.22;;;22.80;;
46899;SDS011;32647;49.382;7.078;2022-10-31T16:39:43;45.13;;;20.80;;
46899;SDS011;32647;49.382;7.078;2022-10-31T16:42:29;33.10;;;17.63;;
46899;SDS011;32647;49.382;7.078;2022-10-31T16:45:17;33.90;;;16.98;;
46899;SDS011;32647;49.382;7.078;2022-10-31T16:48:11;30.55;;;15.55;;
46899;SDS011;32647;49.382;7.078;2022-10-31T16:51:00;25.48;;;14.18;;
46899;SDS011;32647;49.382;7.078;2022-10-31T16:53:46;52.97;;;32.15;;
46899;SDS011;32647;49.382;7.078;2022-10-31T16:56:33;41.75;;;25.58;;
46899;SDS011;32647;49.382;7.078;2022-10-31T16:59:21;35.20;;;20.80;;
46899;SDS011;32647;49.382;7.078;2022-10-31T17:02:09;27.63;;;15.45;;
46899;SDS011;32647;49.382;7.078;2022-10-31T17:05:08;24.05;;;14.88;;
46899;SDS011;32647;49.382;7.078;2022-10-31T17:07:56;21.00;;;14.45;;
46899;SDS011;32647;49.382;7.078;2022-10-31T17:10:43;22.33;;;15.20;;
46899;SDS011;32647;49.382;7.078;2022-10-31T17:13:32;19.65;;;11.50;;
46899;SDS011;32647;49.382;7.078;2022-10-31T17:16:19;21.35;;;12.95;;
46899;SDS011;32647;49.382;7.078;2022-10-31T17:19:09;25.27;;;15.00;;
46899;SDS011;32647;49.382;7.078;2022-10-31T17:21:56;25.10;;;13.38;;
46899;SDS011;32647;49.382;7.078;2022-10-31T17:24:42;22.58;;;13.95;;
46899;SDS011;32647;49.382;7.078;2022-10-31T17:27:28;23.50;;;14.85;;
46899;SDS011;32647;49.382;7.078;2022-10-31T17:30:14;29.75;;;15.73;;
46899;SDS011;32647;49.382;7.078;2022-10-31T17:33:02;24.35;;;15.88;;
46899;SDS011;32647;49.382;7.078;2022-10-31T17:35:48;21.30;;;14.98;;
46899;SDS011;32647;49.382;7.078;2022-10-31T17:38:36;33.40;;;18.95;;
46899;SDS011;32647;49.382;7.078;2022-10-31T17:41:22;31.20;;;19.50;;
46899;SDS011;32647;49.382;7.078;2022-10-31T17:44:11;27.50;;;21.23;;
46899;SDS011;32647;49.382;7.078;2022-10-31T17:46:57;23.42;;;15.40;;
46899;SDS011;32647;49.382;7.078;2022-10-31T17:49:43;25.75;;;15.48;;
46899;SDS011;32647;49.382;7.078;2022-10-31T17:52:29;27.75;;;14.82;;
46899;SDS011;32647;49.382;7.078;2022-10-31T17:55:16;38.67;;;27.45;;
46899;SDS011;32647;49.382;7.078;2022-10-31T17:58:03;29.98;;;21.17;;
46899;SDS011;32647;49.382;7.078;2022-10-31T18:00:49;27.40;;;18.40;;
46899;SDS011;32647;49.382;7.078;2022-10-31T18:03:35;31.50;;;19.42;;
46899;SDS011;32647;49.382;7.078;2022-10-31T18:06:22;39.25;;;22.58;;
46899;SDS011;32647;49.382;7.078;2022-10-31T18:09:08;34.67;;;25.23;;
46899;SDS011;32647;49.382;7.078;2022-10-31T18:11:54;31.80;;;18.70;;
46899;SDS011;32647;49.382;7.078;2022-10-31T18:14:40;23.90;;;17.65;;
46899;SDS011;32647;49.382;7.078;2022-10-31T18:17:26;24.45;;;17.77;;
46899;SDS011;32647;49.382;7.078;2022-10-31T18:20:13;30.88;;;17.48;;
46899;SDS011;32647;49.382;7.078;2022-10-31T18:22:59;31.60;;;17.58;;
46899;SDS011;32647;49.382;7.078;2022-10-31T18:25:45;27.17;;;17.58;;
46899;SDS011;32647;49.382;7.078;2022-10-31T18:28:31;28.17;;;20.35;;
46899;SDS011;32647;49.382;7.078;2022-10-31T18:31:17;31.35;;;22.50;;
46899;SDS011;32647;49.382;7.078;2022-10-31T18:34:04;29.40;;;20.48;;
46899;SDS011;32647;49.382;7.078;2022-10-31T18:36:50;33.60;;;22.67;;
46899;SDS011;32647;49.382;7.078;2022-10-31T18:39:36;35.90;;;23.70;;
46899;SDS011;32647;49.382;7.078;2022-10-31T18:42:23;34.63;;;23.33;;
46899;SDS011;32647;49.382;7.078;2022-10-31T18:45:09;33.72;;;19.80;;
46899;SDS011;32647;49.382;7.078;2022-10-31T18:47:55;28.73;;;19.48;;
46899;SDS011;32647;49.382;7.078;2022-10-31T18:50:41;28.73;;;19.60;;
46899;SDS011;32647;49.382;7.078;2022-10-31T18:53:27;28.13;;;18.90;;
46899;SDS011;32647;49.382;7.078;2022-10-31T18:56:13;27.98;;;18.35;;
46899;SDS011;32647;49.382;7.078;2022-10-31T18:59:00;26.73;;;19.20;;